KATL/ATL METAR and TAF weather

Enter ICAO airport designator
Station Type Date Time Source
KATL METAR 2021/01/17 18:52 UTC NOAA

KATL 171852Z 24008G21KT 10SM SCT048 BKN200 BKN250 09/M03 A2992 RMK AO2 SLP134 T00891028


Station Type Date Time Source
KATL Decoded METAR 2021/01/17 18:52 UTC NOAA

HARTSFIELD-JACKSON ATLANTA, GA, United States (KATL) 33-39N 84-26W
Jan 17, 2021 - 01:52 PM EST / 2021.01.17 1852 UTC
Wind: from the WSW (240 degrees) at 9 MPH (8 KT) gusting to 24 MPH (21 KT):0
Visibility: 10 mile(s):0
Sky conditions: mostly cloudy
Temperature: 48.0 F (8.9 C)
Dew Point: 27.0 F (-2.8 C)
Relative Humidity: 43%
Pressure (altimeter): 29.92 in. Hg (1013 hPa)
ob: KATL 171852Z 24008G21KT 10SM SCT048 BKN200 BKN250 09/M03 A2992 RMK AO2 SLP134 T00891028
cycle: 19

Station Type Date Time Source
KATL TAF 2021/01/17 18:30 UTC NOAA

TAF KATL 171727Z 1718/1824 25010G20KT P6SM SCT045 SCT120
FM172300 24005KT P6SM SCT045
FM180300 24005KT P6SM BKN040
FM180600 27006KT P6SM SCT040
FM181500 28009KT P6SM SKC

Example: see airport list